Time;durP1;ratioP1;P1;durP2;ratioP2;P2;SDS_P1;SDS_P2;PMS_P1;PMS_P2;Temp;Humidity;BMP_temperature;BMP_pressure;BME280_temperature;BME280_humidity;BME280_pressure;Samples;Min_cycle;Max_cycle;Signal;HPM_P1;HPM_P2
2021/12/18 00:00:34;;;;;;;41.40;22.05;;;7.00;99.90;;;;;;5036757;28;20025;-74
2021/12/18 00:03:00;;;;;;;37.83;21.15;;;6.90;99.90;;;;;;5036413;28;20092;-75
2021/12/18 00:05:26;;;;;;;37.17;21.15;;;6.80;99.90;;;;;;5036920;28;20104;-75
2021/12/18 00:07:52;;;;;;;33.72;20.30;;;6.80;99.90;;;;;;5036601;28;20029;-75
2021/12/18 00:10:20;;;;;;;36.90;19.58;;;6.80;99.90;;;;;;5035000;28;20033;-74
2021/12/18 00:12:50;;;;;;;37.70;20.80;;;6.80;99.90;;;;;;5036235;28;20366;-75
2021/12/18 00:15:18;;;;;;;37.85;21.02;;;6.80;99.90;;;;;;5036090;28;20029;-76
2021/12/18 00:17:44;;;;;;;34.58;19.30;;;6.80;99.90;;;;;;5036132;28;20113;-75
2021/12/18 00:20:11;;;;;;;38.50;20.67;;;6.70;99.90;;;;;;5036108;28;20022;-75
2021/12/18 00:22:37;;;;;;;36.35;19.17;;;6.80;99.90;;;;;;5036312;28;20067;-74
2021/12/18 00:25:03;;;;;;;33.03;19.33;;;6.80;99.90;;;;;;5035916;28;20109;-75
2021/12/18 00:27:29;;;;;;;35.65;19.13;;;6.80;99.90;;;;;;5035747;28;20038;-75
2021/12/18 00:29:55;;;;;;;35.67;18.73;;;6.80;99.90;;;;;;5035932;28;20057;-75
2021/12/18 00:32:20;;;;;;;35.35;20.42;;;6.80;99.90;;;;;;5036106;28;20022;-75
2021/12/18 00:34:46;;;;;;;35.50;19.25;;;6.80;99.90;;;;;;5035827;28;20025;-75
2021/12/18 00:37:12;;;;;;;36.00;18.77;;;6.80;99.90;;;;;;5035685;28;20026;-76
2021/12/18 00:39:44;;;;;;;37.55;19.80;;;6.80;99.90;;;;;;5035961;28;20429;-75
2021/12/18 00:45:10;;;;;;;32.55;18.40;;;6.80;99.90;;;;;;5034617;28;20037;-76
2021/12/18 00:47:37;;;;;;;34.83;19.30;;;6.70;99.90;;;;;;5035881;28;20033;-75
2021/12/18 00:50:05;;;;;;;35.35;18.80;;;6.60;99.90;;;;;;5035521;28;20021;-74
2021/12/18 00:52:31;;;;;;;36.55;18.75;;;6.70;99.90;;;;;;5035733;28;20497;-75
2021/12/18 00:54:57;;;;;;;35.08;19.45;;;6.70;99.90;;;;;;5035681;28;20385;-75
2021/12/18 00:57:23;;;;;;;36.15;20.02;;;6.60;99.90;;;;;;5034125;28;20124;-74
2021/12/18 00:59:51;;;;;;;31.67;17.65;;;6.60;99.90;;;;;;5035370;28;20025;-75
2021/12/18 01:02:17;;;;;;;35.70;19.17;;;6.50;99.90;;;;;;5035326;28;20017;-75
2021/12/18 01:04:43;;;;;;;33.20;19.40;;;6.40;99.90;;;;;;5035340;28;20039;-74
2021/12/18 01:07:08;;;;;;;36.47;20.10;;;6.40;99.90;;;;;;5035231;28;20018;-74
2021/12/18 01:10:31;;;;;;;34.47;19.27;;;6.40;99.90;;;;;;5035213;28;20061;-74
2021/12/18 01:12:26;;;;;;;37.40;19.42;;;6.40;99.90;;;;;;5037843;28;20189;-75
2021/12/18 01:22:47;;;;;;;37.75;18.77;;;6.30;99.90;;;;;;5034982;28;20036;-76
2021/12/18 01:25:16;;;;;;;37.63;20.13;;;6.30;99.90;;;;;;5034844;28;20029;-75
2021/12/18 01:27:42;;;;;;;40.83;21.25;;;6.30;99.90;;;;;;5034612;28;20049;-75
2021/12/18 01:30:10;;;;;;;37.65;19.10;;;6.20;99.90;;;;;;5035056;28;20021;-75
2021/12/18 01:32:36;;;;;;;34.55;19.65;;;6.20;99.90;;;;;;5034511;28;20033;-75
2021/12/18 01:35:03;;;;;;;34.20;18.67;;;6.10;99.90;;;;;;5034894;28;20026;-74
2021/12/18 01:37:29;;;;;;;33.28;17.92;;;6.10;99.90;;;;;;5034659;28;20022;-75
2021/12/18 01:39:55;;;;;;;37.28;19.88;;;6.00;99.90;;;;;;5034633;28;20090;-75
2021/12/18 01:45:06;;;;;;;32.70;18.10;;;6.00;99.90;;;;;;5034107;28;20056;-75
2021/12/18 01:52:53;;;;;;;33.05;18.42;;;6.00;99.90;;;;;;5034123;28;20029;-75
2021/12/18 01:55:20;;;;;;;37.50;19.60;;;6.00;99.90;;;;;;5034855;28;20386;-75
2021/12/18 01:57:46;;;;;;;38.05;19.35;;;5.90;99.90;;;;;;5034213;28;20025;-76
2021/12/18 02:00:20;;;;;;;35.97;18.85;;;5.80;99.90;;;;;;5034194;28;20030;-75
2021/12/18 02:02:46;;;;;;;36.13;19.02;;;5.80;99.90;;;;;;5034131;28;20416;-75
2021/12/18 02:05:12;;;;;;;32.10;18.17;;;5.90;99.90;;;;;;5034149;28;20026;-75
2021/12/18 02:07:40;;;;;;;34.33;18.95;;;5.80;99.90;;;;;;5034080;28;20484;-75
2021/12/18 02:10:10;;;;;;;36.22;19.77;;;5.80;99.90;;;;;;5034595;28;20025;-74
2021/12/18 02:12:48;;;;;;;31.65;18.20;;;5.80;99.90;;;;;;5034275;28;20470;-75
2021/12/18 02:20:47;;;;;;;38.13;18.08;;;5.80;99.90;;;;;;5034193;28;20029;-75
2021/12/18 02:23:13;;;;;;;35.05;18.48;;;5.70;99.90;;;;;;5033755;28;20030;-75
2021/12/18 02:25:39;;;;;;;39.58;19.73;;;5.80;99.90;;;;;;5033780;28;20478;-75
2021/12/18 02:28:13;;;;;;;35.22;18.60;;;5.70;99.90;;;;;;5033521;28;20049;-75
2021/12/18 02:30:39;;;;;;;38.75;19.48;;;5.60;99.90;;;;;;5034300;28;20466;-75
2021/12/18 02:33:05;;;;;;;33.65;18.83;;;5.60;99.90;;;;;;5033636;28;20056;-75
2021/12/18 02:35:36;;;;;;;34.63;18.45;;;5.50;99.90;;;;;;5033819;28;20497;-75
2021/12/18 02:38:09;;;;;;;33.00;18.42;;;5.50;99.90;;;;;;5033934;28;20082;-75
2021/12/18 02:43:22;;;;;;;36.03;19.02;;;5.50;99.90;;;;;;5033300;28;20097;-75
2021/12/18 02:45:48;;;;;;;37.88;19.73;;;5.50;99.90;;;;;;5033547;28;20051;-75
2021/12/18 02:48:14;;;;;;;38.05;21.48;;;5.50;99.90;;;;;;5033434;28;20493;-75
2021/12/18 02:50:40;;;;;;;34.90;18.58;;;5.50;99.90;;;;;;5033445;28;20037;-75
2021/12/18 02:53:06;;;;;;;36.85;18.55;;;5.60;99.90;;;;;;5033416;28;20382;-75
2021/12/18 02:55:32;;;;;;;30.73;17.10;;;5.60;99.90;;;;;;5033590;28;20080;-75
2021/12/18 02:57:58;;;;;;;40.08;19.52;;;5.60;99.90;;;;;;5032727;28;20033;-75
2021/12/18 03:00:26;;;;;;;38.30;19.38;;;5.50;99.90;;;;;;5033310;28;20108;-74
2021/12/18 03:02:51;;;;;;;35.50;19.15;;;5.50;99.90;;;;;;5033249;28;20022;-75
2021/12/18 03:05:24;;;;;;;38.35;18.70;;;5.50;99.90;;;;;;5033241;28;20159;-75
2021/12/18 03:07:57;;;;;;;38.58;20.02;;;5.50;99.90;;;;;;5033559;28;20075;-75
2021/12/18 03:26:54;;;;;;;36.42;17.92;;;5.50;99.90;;;;;;5032804;28;20386;-75
2021/12/18 03:29:20;;;;;;;36.47;17.98;;;5.50;99.90;;;;;;5032823;28;20129;-75
2021/12/18 03:31:46;;;;;;;35.95;17.58;;;5.50;99.90;;;;;;5033256;28;20107;-75
2021/12/18 03:34:11;;;;;;;35.60;19.38;;;5.60;99.90;;;;;;5032971;28;20076;-75
2021/12/18 03:36:37;;;;;;;35.17;19.75;;;5.50;99.90;;;;;;5031608;28;20033;-75
2021/12/18 03:39:03;;;;;;;37.47;18.58;;;5.40;99.90;;;;;;5033165;28;20036;-75
2021/12/18 03:41:29;;;;;;;40.33;19.13;;;5.40;99.90;;;;;;5032883;28;20049;-75
2021/12/18 03:43:54;;;;;;;34.60;17.85;;;5.40;99.90;;;;;;5031582;28;20029;-75
2021/12/18 03:46:20;;;;;;;36.17;19.25;;;5.30;99.90;;;;;;5032867;28;20029;-75
2021/12/18 03:48:46;;;;;;;35.83;19.63;;;5.30;99.90;;;;;;5033361;28;20033;-75
2021/12/18 03:51:11;;;;;;;36.13;19.30;;;5.30;99.90;;;;;;5032844;28;20025;-75
2021/12/18 03:53:37;;;;;;;42.60;20.83;;;5.30;99.90;;;;;;5033062;28;20029;-75
2021/12/18 03:56:03;;;;;;;35.78;19.67;;;5.30;99.90;;;;;;5033235;28;20037;-75
2021/12/18 03:58:29;;;;;;;36.42;18.70;;;5.20;99.90;;;;;;5032806;28;20100;-75
2021/12/18 04:00:55;;;;;;;36.78;19.45;;;5.20;99.90;;;;;;5032733;28;20515;-75
2021/12/18 04:03:21;;;;;;;34.13;19.38;;;5.20;99.90;;;;;;5032690;28;20104;-75
2021/12/18 04:05:46;;;;;;;37.05;20.88;;;5.20;99.90;;;;;;5032685;28;20160;-75
2021/12/18 04:08:12;;;;;;;36.40;18.83;;;5.20;99.90;;;;;;5034265;28;20053;-75
2021/12/18 04:10:40;;;;;;;35.50;18.73;;;5.20;99.90;;;;;;5036558;28;20115;-76
2021/12/18 04:13:07;;;;;;;37.83;19.10;;;5.30;99.90;;;;;;5036708;28;20041;-75
2021/12/18 04:15:34;;;;;;;39.38;20.80;;;5.30;99.90;;;;;;5036404;28;20500;-75
2021/12/18 04:18:00;;;;;;;40.08;19.55;;;5.10;99.90;;;;;;5036181;28;20026;-75
2021/12/18 04:20:26;;;;;;;36.67;18.83;;;5.20;99.90;;;;;;5036099;28;20014;-74
2021/12/18 04:22:52;;;;;;;45.83;20.70;;;5.10;99.90;;;;;;5036044;28;20021;-75
2021/12/18 04:25:18;;;;;;;37.80;20.55;;;5.10;99.90;;;;;;5035928;28;20021;-75
2021/12/18 04:27:43;;;;;;;38.03;19.52;;;5.20;99.90;;;;;;5035754;28;20117;-75
2021/12/18 04:30:10;;;;;;;39.00;19.63;;;5.30;99.90;;;;;;5036208;28;20045;-74
2021/12/18 04:32:36;;;;;;;34.08;18.63;;;5.20;99.90;;;;;;5035905;28;20508;-75
2021/12/18 04:35:01;;;;;;;40.05;20.50;;;5.20;99.90;;;;;;5035822;28;20101;-74
2021/12/18 04:37:27;;;;;;;34.83;18.30;;;5.20;99.90;;;;;;5036099;28;20031;-75
2021/12/18 04:39:53;;;;;;;35.63;19.45;;;5.20;99.90;;;;;;5034522;28;20087;-74
2021/12/18 04:42:20;;;;;;;38.47;20.13;;;5.20;99.90;;;;;;5035756;28;20029;-74
2021/12/18 04:44:46;;;;;;;36.20;19.08;;;5.20;99.90;;;;;;5035700;28;20067;-75
2021/12/18 04:47:12;;;;;;;37.25;19.77;;;5.10;99.90;;;;;;5035678;28;20026;-75
2021/12/18 04:49:38;;;;;;;37.78;21.38;;;5.10;99.90;;;;;;5036140;28;20033;-74
2021/12/18 04:52:04;;;;;;;35.28;18.55;;;5.10;99.90;;;;;;5035541;28;20108;-74
2021/12/18 04:54:30;;;;;;;34.05;19.15;;;5.20;99.90;;;;;;5035476;28;20071;-75
2021/12/18 04:56:56;;;;;;;36.30;19.38;;;5.20;99.90;;;;;;5035393;28;20455;-75
2021/12/18 04:59:22;;;;;;;37.78;18.77;;;5.20;99.90;;;;;;5034156;28;20489;-76
2021/12/18 05:01:50;;;;;;;37.45;20.13;;;5.20;99.90;;;;;;5035426;28;20026;-75
2021/12/18 05:04:15;;;;;;;38.75;19.67;;;5.00;99.90;;;;;;5035262;28;20009;-75
2021/12/18 05:06:45;;;;;;;34.22;18.70;;;5.10;99.90;;;;;;5035274;28;20040;-75
2021/12/18 05:09:15;;;;;;;38.58;20.42;;;5.10;99.90;;;;;;5035217;28;20436;-75
2021/12/18 05:11:42;;;;;;;36.10;18.20;;;5.10;99.90;;;;;;5035207;28;20025;-75
2021/12/18 05:14:08;;;;;;;36.63;18.98;;;5.10;99.90;;;;;;5035156;28;20021;-75
2021/12/18 05:16:34;;;;;;;39.70;21.58;;;5.20;99.90;;;;;;5034981;28;20037;-75
2021/12/18 05:19:00;;;;;;;36.42;18.80;;;5.20;99.90;;;;;;5034386;28;20018;-74
2021/12/18 05:21:27;;;;;;;34.33;19.85;;;5.30;99.90;;;;;;5034823;28;20048;-75
2021/12/18 05:23:52;;;;;;;34.20;18.65;;;5.30;99.90;;;;;;5034890;28;20032;-75
2021/12/18 05:26:18;;;;;;;33.83;18.35;;;5.30;99.90;;;;;;5035288;28;20025;-74
2021/12/18 05:28:44;;;;;;;34.85;20.10;;;5.30;99.90;;;;;;5034834;28;20052;-75
2021/12/18 05:31:12;;;;;;;36.45;18.73;;;5.10;99.90;;;;;;5034781;28;20060;-75
2021/12/18 05:33:38;;;;;;;34.20;19.25;;;5.00;99.90;;;;;;5034726;28;20029;-75
2021/12/18 05:36:13;;;;;;;35.80;19.00;;;5.00;99.90;;;;;;5034925;28;20037;-74
2021/12/18 05:38:39;;;;;;;37.67;19.67;;;4.90;99.90;;;;;;5034990;28;20018;-75
2021/12/18 05:41:05;;;;;;;37.60;19.70;;;4.90;99.90;;;;;;5034613;28;20041;-75
2021/12/18 05:43:30;;;;;;;37.22;20.15;;;4.90;99.90;;;;;;5034834;28;20025;-75
2021/12/18 05:45:56;;;;;;;34.28;18.63;;;5.00;99.90;;;;;;5034333;28;20036;-74
2021/12/18 05:48:21;;;;;;;41.15;19.42;;;5.00;99.90;;;;;;5034476;28;20018;-74
2021/12/18 05:50:47;;;;;;;34.63;18.23;;;5.00;99.90;;;;;;5034663;28;20398;-75
2021/12/18 05:53:14;;;;;;;33.10;18.50;;;5.10;99.90;;;;;;5034337;28;20494;-75
2021/12/18 05:55:39;;;;;;;37.00;20.33;;;5.10;99.90;;;;;;5034522;28;20061;-75
2021/12/18 05:58:05;;;;;;;39.25;20.35;;;5.00;99.90;;;;;;5034265;28;20048;-75
2021/12/18 06:00:31;;;;;;;40.97;20.27;;;5.00;99.90;;;;;;5034789;28;20021;-75
2021/12/18 06:02:56;;;;;;;36.30;18.48;;;5.00;99.90;;;;;;5034467;28;20072;-75
2021/12/18 06:05:22;;;;;;;37.95;20.17;;;5.10;99.90;;;;;;5034140;28;20030;-75
2021/12/18 06:10:22;;;;;;;36.15;18.33;;;5.40;99.90;;;;;;5034703;28;20025;-75
2021/12/18 06:12:48;;;;;;;35.72;20.05;;;5.40;99.90;;;;;;5034052;28;20021;-75
2021/12/18 06:15:13;;;;;;;32.80;18.70;;;5.40;99.90;;;;;;5034173;28;20025;-75
2021/12/18 06:17:39;;;;;;;33.10;17.50;;;5.50;99.90;;;;;;5033933;28;20549;-75
2021/12/18 06:20:05;;;;;;;31.38;18.30;;;5.60;99.90;;;;;;5034160;28;20417;-75
2021/12/18 06:22:31;;;;;;;31.35;17.65;;;5.70;99.90;;;;;;5033878;28;20032;-75
2021/12/18 06:24:57;;;;;;;30.00;18.25;;;5.80;99.90;;;;;;5033788;28;20026;-75
2021/12/18 06:27:22;;;;;;;34.88;18.83;;;5.90;99.90;;;;;;5033781;28;20041;-75
2021/12/18 06:29:49;;;;;;;33.38;19.20;;;5.90;99.90;;;;;;5034052;28;20029;-75
2021/12/18 06:32:14;;;;;;;35.53;18.30;;;5.90;99.90;;;;;;5033568;28;20021;-74
2021/12/18 06:34:40;;;;;;;30.73;17.80;;;5.90;99.90;;;;;;5033706;28;20516;-75
2021/12/18 06:37:06;;;;;;;33.95;18.55;;;5.90;99.90;;;;;;5033799;28;20029;-74
2021/12/18 06:39:31;;;;;;;29.65;17.05;;;5.90;99.90;;;;;;5033827;28;20026;-75
2021/12/18 06:41:57;;;;;;;30.10;16.73;;;6.00;99.90;;;;;;5033546;28;20433;-75
2021/12/18 06:44:23;;;;;;;31.08;16.90;;;6.00;99.90;;;;;;5033496;28;20445;-74
2021/12/18 06:46:48;;;;;;;31.27;17.55;;;6.10;99.90;;;;;;5033472;28;20104;-74
2021/12/18 06:49:14;;;;;;;37.30;19.02;;;6.00;99.90;;;;;;5033990;28;20080;-75
2021/12/18 06:51:40;;;;;;;30.17;17.48;;;5.90;99.90;;;;;;5033716;28;20029;-75
2021/12/18 06:54:05;;;;;;;30.60;16.88;;;5.80;99.90;;;;;;5033379;28;20064;-74
2021/12/18 06:56:32;;;;;;;32.45;17.50;;;5.80;99.90;;;;;;5033284;28;20485;-75
2021/12/18 06:58:58;;;;;;;31.70;17.50;;;5.80;99.90;;;;;;5033573;28;20079;-75
2021/12/18 07:01:23;;;;;;;31.73;17.38;;;5.80;99.90;;;;;;5033518;28;20022;-75
2021/12/18 07:03:49;;;;;;;30.17;16.67;;;5.70;99.90;;;;;;5033556;28;20026;-74
2021/12/18 07:06:14;;;;;;;31.23;17.98;;;5.70;99.90;;;;;;5033271;28;20021;-76
2021/12/18 07:08:40;;;;;;;37.17;18.45;;;5.60;99.90;;;;;;5033521;28;20381;-75
2021/12/18 07:11:06;;;;;;;35.70;18.67;;;5.60;99.90;;;;;;5033471;28;20075;-75
2021/12/18 07:13:31;;;;;;;32.67;19.55;;;5.70;99.90;;;;;;5033490;28;20029;-75
2021/12/18 07:15:57;;;;;;;37.38;20.73;;;5.60;99.90;;;;;;5033065;28;20026;-75
2021/12/18 07:18:23;;;;;;;40.08;21.02;;;5.40;99.90;;;;;;5033168;28;20096;-75
2021/12/18 07:20:50;;;;;;;35.58;20.75;;;5.40;99.90;;;;;;5033355;28;20014;-74
2021/12/18 07:23:16;;;;;;;35.47;20.23;;;5.30;99.90;;;;;;5031718;28;20539;-74
2021/12/18 07:25:41;;;;;;;31.95;18.67;;;5.40;99.90;;;;;;5033038;28;20026;-75
2021/12/18 07:28:07;;;;;;;37.60;19.60;;;5.20;99.90;;;;;;5032831;28;20057;-75
2021/12/18 07:30:33;;;;;;;33.25;19.17;;;5.20;99.90;;;;;;5033338;28;20025;-75
2021/12/18 07:32:58;;;;;;;39.58;19.80;;;5.20;99.90;;;;;;5033025;28;20080;-75
2021/12/18 07:35:24;;;;;;;34.08;19.67;;;5.10;99.90;;;;;;5031669;28;20402;-75
2021/12/18 07:37:50;;;;;;;33.78;18.95;;;5.10;99.90;;;;;;5032953;28;20449;-75
2021/12/18 07:40:15;;;;;;;34.45;19.30;;;4.90;99.90;;;;;;5033215;28;20048;-75
2021/12/18 07:42:41;;;;;;;34.92;19.83;;;4.80;99.90;;;;;;5034295;28;20017;-76
2021/12/18 07:45:08;;;;;;;31.85;19.45;;;4.90;99.90;;;;;;5036795;28;20401;-74
2021/12/18 07:47:34;;;;;;;35.50;19.83;;;5.00;99.90;;;;;;5036772;28;20101;-74
2021/12/18 07:50:02;;;;;;;34.08;19.20;;;5.20;99.90;;;;;;5037024;28;20052;-74
2021/12/18 07:52:28;;;;;;;36.90;19.75;;;5.20;99.90;;;;;;5036965;28;20021;-75
2021/12/18 07:54:53;;;;;;;34.63;18.95;;;5.20;99.90;;;;;;5036891;28;20482;-75
2021/12/18 07:57:19;;;;;;;31.80;18.55;;;5.30;99.90;;;;;;5036477;28;20108;-74
2021/12/18 07:59:44;;;;;;;35.25;19.25;;;5.40;99.90;;;;;;5036548;28;20053;-74
2021/12/18 08:02:10;;;;;;;37.38;20.15;;;5.50;99.90;;;;;;5036476;28;20367;-75
2021/12/18 08:04:36;;;;;;;32.65;18.83;;;5.60;99.90;;;;;;5036469;28;20374;-75
2021/12/18 08:07:02;;;;;;;31.35;18.20;;;5.60;99.90;;;;;;5036455;28;20025;-75
2021/12/18 08:09:29;;;;;;;35.10;19.60;;;5.60;99.90;;;;;;5036600;28;20440;-75
2021/12/18 08:11:54;;;;;;;37.15;20.83;;;5.70;99.90;;;;;;5036580;28;20474;-75
2021/12/18 08:14:20;;;;;;;34.55;20.52;;;5.60;99.90;;;;;;5036261;28;20032;-75
2021/12/18 08:16:47;;;;;;;38.03;21.13;;;5.60;99.90;;;;;;5036183;28;20393;-76
2021/12/18 08:19:14;;;;;;;35.45;20.33;;;5.50;99.90;;;;;;5036223;28;20452;-75
2021/12/18 08:21:40;;;;;;;35.42;21.95;;;5.50;99.90;;;;;;5036414;28;20169;-75
2021/12/18 08:24:06;;;;;;;36.95;19.83;;;5.40;99.90;;;;;;5036225;28;20077;-75
2021/12/18 08:26:31;;;;;;;32.53;19.65;;;5.30;99.90;;;;;;5036321;28;20025;-75
2021/12/18 08:28:57;;;;;;;33.47;20.13;;;5.40;99.90;;;;;;5035688;28;20060;-74
2021/12/18 08:31:23;;;;;;;33.22;19.80;;;5.50;99.90;;;;;;5036228;28;20493;-75
2021/12/18 08:33:48;;;;;;;31.75;18.60;;;5.50;99.90;;;;;;5036150;28;20386;-74
2021/12/18 08:36:14;;;;;;;34.70;19.77;;;5.60;99.90;;;;;;5035788;28;20151;-74
2021/12/18 08:38:40;;;;;;;37.78;21.08;;;5.70;99.90;;;;;;5034543;28;20025;-75
2021/12/18 08:41:06;;;;;;;35.30;22.20;;;5.70;99.90;;;;;;5036071;28;20441;-75
2021/12/18 08:43:32;;;;;;;36.28;22.05;;;5.70;99.90;;;;;;5036012;28;20079;-74
2021/12/18 08:45:57;;;;;;;38.78;19.70;;;5.70;99.90;;;;;;5035637;28;20486;-75
2021/12/18 08:48:23;;;;;;;39.60;21.92;;;5.70;99.90;;;;;;5035661;28;20029;-75
2021/12/18 08:50:49;;;;;;;37.30;21.92;;;5.70;99.90;;;;;;5035578;28;20478;-74
2021/12/18 08:53:15;;;;;;;38.67;21.30;;;5.70;99.90;;;;;;5035525;28;20091;-75
2021/12/18 08:55:40;;;;;;;36.38;22.40;;;5.60;99.90;;;;;;5034217;28;20437;-75
2021/12/18 08:58:06;;;;;;;36.58;22.02;;;5.70;99.90;;;;;;5035345;28;20482;-75
2021/12/18 09:00:33;;;;;;;39.40;22.02;;;5.80;99.90;;;;;;5035445;28;20013;-75
2021/12/18 09:03:00;;;;;;;35.05;21.92;;;5.80;99.90;;;;;;5035651;28;20458;-75
2021/12/18 09:05:27;;;;;;;41.13;22.98;;;5.90;99.90;;;;;;5035354;28;20462;-75
2021/12/18 09:07:53;;;;;;;45.30;25.65;;;5.80;99.90;;;;;;5035193;28;20462;-73
2021/12/18 09:10:20;;;;;;;42.95;25.58;;;5.70;99.90;;;;;;5035228;28;20029;-73
2021/12/18 09:12:46;;;;;;;44.45;26.42;;;5.70;99.90;;;;;;5035287;28;20024;-74
2021/12/18 09:15:12;;;;;;;38.67;23.65;;;5.60;99.90;;;;;;5035612;28;20017;-73
2021/12/18 09:17:38;;;;;;;41.72;25.48;;;5.60;99.90;;;;;;5035877;28;20025;-74
2021/12/18 09:20:06;;;;;;;42.15;24.33;;;5.50;99.90;;;;;;5035229;28;20022;-76
2021/12/18 09:22:32;;;;;;;40.25;23.95;;;5.50;99.90;;;;;;5035583;28;20466;-77
2021/12/18 09:24:59;;;;;;;37.95;23.48;;;5.50;99.90;;;;;;5034921;28;20020;-72
2021/12/18 09:27:25;;;;;;;38.85;24.10;;;5.60;99.90;;;;;;5034931;28;20045;-74
2021/12/18 09:29:50;;;;;;;39.25;22.20;;;5.70;99.90;;;;;;5035434;28;20033;-74
2021/12/18 09:32:16;;;;;;;35.42;20.63;;;5.90;99.90;;;;;;5034822;28;20084;-74
2021/12/18 09:34:42;;;;;;;35.53;22.08;;;6.00;99.90;;;;;;5034718;28;20482;-73
2021/12/18 09:37:09;;;;;;;36.53;21.38;;;6.10;99.90;;;;;;5035118;28;20029;-73
2021/12/18 09:39:34;;;;;;;36.28;21.08;;;6.20;99.90;;;;;;5034632;28;20018;-73
2021/12/18 09:42:00;;;;;;;37.55;22.35;;;6.30;99.90;;;;;;5034606;28;20367;-74
2021/12/18 09:44:30;;;;;;;37.42;22.08;;;6.20;99.90;;;;;;5034567;28;20033;-73
2021/12/18 09:46:58;;;;;;;37.35;22.13;;;6.30;99.90;;;;;;5035559;28;20072;-74
2021/12/18 09:49:24;;;;;;;39.75;21.85;;;6.30;99.90;;;;;;5035085;28;20041;-73
2021/12/18 09:51:50;;;;;;;33.47;20.75;;;6.30;99.90;;;;;;5034261;28;20036;-74
2021/12/18 09:54:16;;;;;;;34.50;21.23;;;6.40;99.90;;;;;;5034857;28;20029;-73
2021/12/18 09:56:43;;;;;;;38.30;22.23;;;6.50;99.90;;;;;;5034159;28;20056;-75
2021/12/18 09:59:09;;;;;;;35.72;21.10;;;6.40;99.90;;;;;;5034990;28;20017;-74
2021/12/18 10:01:35;;;;;;;39.75;21.17;;;6.50;99.90;;;;;;5033549;28;20029;-76
2021/12/18 10:04:02;;;;;;;37.95;22.52;;;6.60;99.90;;;;;;5034140;28;20024;-74
2021/12/18 10:06:44;;;;;;;36.00;23.15;;;6.60;99.90;;;;;;5038023;28;20039;-75
2021/12/18 10:09:18;;;;;;;37.17;22.70;;;6.70;99.90;;;;;;5043388;28;20070;-77
2021/12/18 10:11:47;;;;;;;35.67;21.25;;;6.80;99.90;;;;;;5036577;28;20501;-76
2021/12/18 10:14:14;;;;;;;37.60;21.02;;;6.90;99.90;;;;;;5047276;28;20103;-76
2021/12/18 10:16:57;;;;;;;38.17;20.70;;;7.00;99.90;;;;;;5054354;28;20461;-77
2021/12/18 10:19:32;;;;;;;33.63;20.45;;;7.00;99.90;;;;;;5054473;28;20027;-75
2021/12/18 10:22:02;;;;;;;35.75;21.58;;;7.00;99.90;;;;;;5052966;28;20078;-75
2021/12/18 10:24:28;;;;;;;;;;;7.10;99.90;;;;;;5052794;28;20025;-77
2021/12/18 10:26:55;;;;;;;33.85;19.40;;;7.20;99.90;;;;;;5054238;28;19918;-77
2021/12/18 10:29:37;;;;;;;37.20;20.83;;;7.20;99.90;;;;;;5053607;28;20132;-76
2021/12/18 10:32:11;;;;;;;32.28;19.10;;;7.30;99.90;;;;;;5053998;28;20021;-74
2021/12/18 10:34:39;;;;;;;32.88;19.60;;;7.40;99.90;;;;;;5054126;28;20024;-74
2021/12/18 10:37:20;;;;;;;32.05;18.63;;;7.40;99.90;;;;;;5053425;28;20024;-76
2021/12/18 10:39:54;;;;;;;;;;;7.30;99.90;;;;;;5054193;28;20021;-75
2021/12/18 10:42:22;;;;;;;30.70;18.58;;;7.30;99.90;;;;;;5052148;28;19905;-75
2021/12/18 10:45:12;;;;;;;32.58;18.52;;;7.30;99.90;;;;;;5053461;28;20037;-81
2021/12/18 10:47:55;;;;;;;31.08;17.95;;;7.30;99.90;;;;;;5054169;28;20033;-76
2021/12/18 10:50:46;;;;;;;35.67;17.88;;;7.20;99.90;;;;;;5053866;28;20025;-78
2021/12/18 10:53:24;;;;;;;28.92;18.77;;;7.30;99.90;;;;;;5053772;28;20025;-76
2021/12/18 10:55:55;;;;;;;30.13;18.13;;;7.30;99.90;;;;;;5053194;28;20366;-79
2021/12/18 10:58:27;;;;;;;30.05;18.15;;;7.30;99.90;;;;;;5053159;28;20389;-75
2021/12/18 11:01:00;;;;;;;27.35;17.33;;;7.30;99.90;;;;;;5053671;28;20457;-74
2021/12/18 11:03:32;;;;;;;29.83;18.02;;;7.30;99.90;;;;;;5053745;28;20079;-77
2021/12/18 11:06:14;;;;;;;28.92;18.25;;;7.20;99.90;;;;;;5053437;28;20040;-77
2021/12/18 11:08:53;;;;;;;29.67;18.27;;;7.30;99.90;;;;;;5053473;28;20412;-76
2021/12/18 11:14:03;;;;;;;29.45;17.95;;;7.40;99.90;;;;;;5032496;28;20041;-73
2021/12/18 11:16:29;;;;;;;31.05;17.80;;;7.30;99.90;;;;;;5032226;28;20047;-74
2021/12/18 11:18:56;;;;;;;30.25;17.58;;;7.40;99.90;;;;;;5036098;28;20374;-75
2021/12/18 11:21:25;;;;;;;27.30;18.08;;;7.30;99.90;;;;;;5035744;28;20022;-75
2021/12/18 11:23:55;;;;;;;32.00;17.40;;;7.30;99.90;;;;;;5035728;28;20432;-75
2021/12/18 11:26:28;;;;;;;28.77;17.27;;;7.20;99.90;;;;;;5036317;28;20022;-75
2021/12/18 11:28:54;;;;;;;31.65;18.52;;;7.30;99.90;;;;;;5036596;28;20053;-74
2021/12/18 11:31:20;;;;;;;29.83;17.75;;;7.30;99.90;;;;;;5036827;28;20030;-72
2021/12/18 11:33:45;;;;;;;32.55;18.70;;;7.30;99.90;;;;;;5037166;28;20155;-73
2021/12/18 11:36:11;;;;;;;28.42;17.27;;;7.30;99.90;;;;;;5037204;28;20041;-74
2021/12/18 11:38:42;;;;;;;32.65;19.23;;;7.30;99.90;;;;;;5036933;28;20385;-74
2021/12/18 11:41:18;;;;;;;30.35;18.30;;;7.30;99.90;;;;;;5036861;28;20474;-75
2021/12/18 11:43:46;;;;;;;27.23;17.60;;;7.30;99.90;;;;;;5037964;28;20021;-76
2021/12/18 11:46:41;;;;;;;30.67;18.55;;;7.40;99.90;;;;;;5036784;28;20021;-73
2021/12/18 11:49:10;;;;;;;32.03;18.45;;;7.40;99.90;;;;;;5036424;28;20068;-74
2021/12/18 11:51:37;;;;;;;29.60;17.65;;;7.40;99.90;;;;;;5035317;28;20370;-73
2021/12/18 11:54:24;;;;;;;31.25;18.73;;;7.40;99.90;;;;;;5036311;28;20021;-74
2021/12/18 11:56:51;;;;;;;28.33;17.75;;;7.50;99.90;;;;;;5034946;28;20256;-72
2021/12/18 11:59:38;;;;;;;31.17;17.92;;;7.50;99.90;;;;;;5036426;28;20049;-76
2021/12/18 12:02:04;;;;;;;29.48;17.48;;;7.50;99.90;;;;;;5036530;28;20033;-74
2021/12/18 12:05:06;;;;;;;28.63;17.05;;;7.60;99.90;;;;;;5036482;28;20561;-74
2021/12/18 12:07:31;;;;;;;34.08;19.38;;;7.70;99.90;;;;;;5034628;28;20029;-75
2021/12/18 12:10:06;;;;;;;32.15;18.23;;;7.70;99.90;;;;;;5035931;28;20401;-74
2021/12/18 12:12:53;;;;;;;28.80;18.60;;;7.80;99.90;;;;;;5036638;28;20025;-75
2021/12/18 12:15:25;;;;;;;25.52;15.80;;;7.80;99.90;;;;;;5036588;28;20022;-75
2021/12/18 12:18:04;;;;;;;26.77;16.83;;;7.90;99.90;;;;;;5036824;28;20029;-73
2021/12/18 12:20:41;;;;;;;28.80;17.38;;;7.90;99.90;;;;;;5036141;28;20021;-74
2021/12/18 12:23:09;;;;;;;26.25;15.60;;;8.00;99.90;;;;;;5034880;28;20401;-74
2021/12/18 12:25:37;;;;;;;26.98;16.80;;;8.00;99.90;;;;;;5036364;28;20026;-74
2021/12/18 12:28:09;;;;;;;23.35;15.70;;;8.10;99.90;;;;;;5035738;28;20049;-75
2021/12/18 12:30:46;;;;;;;26.15;15.30;;;8.10;99.90;;;;;;5035991;28;20370;-74
2021/12/18 12:33:24;;;;;;;26.52;16.45;;;8.10;99.90;;;;;;5036266;28;20025;-74
2021/12/18 12:36:11;;;;;;;24.75;16.00;;;8.10;99.90;;;;;;5035857;28;20421;-72
2021/12/18 12:38:38;;;;;;;25.73;16.08;;;8.10;99.90;;;;;;5036199;28;20067;-75
2021/12/18 12:41:36;;;;;;;24.90;15.45;;;8.20;99.90;;;;;;5035849;28;20479;-73
2021/12/18 12:44:26;;;;;;;25.50;14.85;;;8.30;99.90;;;;;;5035828;28;20048;-74
2021/12/18 12:47:10;;;;;;;25.70;15.48;;;8.30;99.90;;;;;;5035401;28;20033;-75
2021/12/18 12:49:36;;;;;;;26.15;16.25;;;8.30;99.90;;;;;;5035964;28;20060;-73
2021/12/18 12:52:09;;;;;;;25.52;16.63;;;8.40;99.90;;;;;;5036208;28;20057;-75
2021/12/18 12:55:15;;;;;;;26.20;15.15;;;8.40;99.90;;;;;;5036121;28;20029;-75
2021/12/18 12:57:45;;;;;;;22.85;14.35;;;8.40;99.90;;;;;;5035128;28;20461;-74
2021/12/18 13:00:11;;;;;;;22.95;14.80;;;8.50;99.90;;;;;;5035786;28;20025;-75
2021/12/18 13:02:48;;;;;;;27.08;15.13;;;8.50;99.90;;;;;;5035982;28;20025;-74
2021/12/18 13:05:14;;;;;;;24.50;15.48;;;8.50;99.90;;;;;;5035665;28;20034;-76
2021/12/18 13:07:52;;;;;;;23.98;14.90;;;8.50;99.90;;;;;;5035314;28;20116;-74
2021/12/18 13:10:19;;;;;;;25.05;15.13;;;8.60;99.90;;;;;;5035801;28;20026;-74
2021/12/18 13:12:55;;;;;;;23.85;15.75;;;8.60;99.90;;;;;;5035166;28;20040;-75
2021/12/18 13:15:22;;;;;;;26.50;14.95;;;8.60;99.90;;;;;;5035390;28;20032;-75
2021/12/18 13:17:48;;;;;;;23.52;14.18;;;8.70;99.90;;;;;;5035127;28;20025;-75
2021/12/18 13:20:14;;;;;;;21.45;13.95;;;8.70;99.90;;;;;;5035114;28;20025;-76
2021/12/18 13:22:50;;;;;;;23.10;14.77;;;8.70;99.90;;;;;;5035107;28;20033;-73
2021/12/18 13:25:16;;;;;;;21.90;13.98;;;8.80;99.90;;;;;;5035206;28;20022;-75
2021/12/18 13:28:02;;;;;;;22.90;13.88;;;8.80;99.90;;;;;;5034974;28;20049;-73
2021/12/18 13:30:27;;;;;;;22.60;13.63;;;8.80;99.90;;;;;;5034964;28;20030;-74
2021/12/18 13:33:05;;;;;;;21.20;14.60;;;8.90;99.90;;;;;;5034867;28;20030;-75